sensor_id;sensor_type;location;lat;lon;timestamp;P1;durP1;ratioP1;P2;durP2;ratioP2
78338;SDS011;67614;47.406;18.784;2023-03-01T02:37:54;24.93;;;23.90;;
78338;SDS011;67614;47.406;18.784;2023-03-01T02:38:27;26.33;;;25.17;;
78338;SDS011;67614;47.406;18.784;2023-03-01T02:38:58;25.83;;;24.63;;
78338;SDS011;67614;47.406;18.784;2023-03-01T02:39:36;26.60;;;25.17;;
78338;SDS011;67614;47.406;18.784;2023-03-01T02:40:15;26.57;;;24.87;;
78338;SDS011;67614;47.406;18.784;2023-03-01T02:40:48;27.00;;;25.23;;
78338;SDS011;67614;47.406;18.784;2023-03-01T02:41:20;26.87;;;25.50;;
78338;SDS011;67614;47.406;18.784;2023-03-01T02:41:52;25.93;;;24.67;;
78338;SDS011;67614;47.406;18.784;2023-03-01T02:42:27;25.60;;;24.23;;
78338;SDS011;67614;47.406;18.784;2023-03-01T02:43:01;25.37;;;24.03;;
78338;SDS011;67614;47.406;18.784;2023-03-01T02:43:35;26.77;;;25.43;;
78338;SDS011;67614;47.406;18.784;2023-03-01T02:44:06;25.97;;;24.87;;
78338;SDS011;67614;47.406;18.784;2023-03-01T02:52:52;24.57;;;23.37;;
78338;SDS011;67614;47.406;18.784;2023-03-01T02:54:46;24.40;;;22.93;;
78338;SDS011;67614;47.406;18.784;2023-03-01T02:55:23;23.93;;;22.80;;
78338;SDS011;67614;47.406;18.784;2023-03-01T02:55:53;24.30;;;23.13;;
78338;SDS011;67614;47.406;18.784;2023-03-01T02:56:24;23.77;;;22.57;;
78338;SDS011;67614;47.406;18.784;2023-03-01T02:56:55;23.80;;;22.40;;
78338;SDS011;67614;47.406;18.784;2023-03-01T02:57:26;23.67;;;22.27;;
78338;SDS011;67614;47.406;18.784;2023-03-01T02:57:58;23.83;;;22.33;;
78338;SDS011;67614;47.406;18.784;2023-03-01T02:58:32;24.17;;;22.50;;
78338;SDS011;67614;47.406;18.784;2023-03-01T02:59:10;25.00;;;23.27;;
78338;SDS011;67614;47.406;18.784;2023-03-01T02:59:41;24.50;;;22.97;;
78338;SDS011;67614;47.406;18.784;2023-03-01T03:00:14;25.00;;;23.77;;
78338;SDS011;67614;47.406;18.784;2023-03-01T03:00:51;24.27;;;23.03;;
78338;SDS011;67614;47.406;18.784;2023-03-01T03:01:22;22.57;;;21.40;;
78338;SDS011;67614;47.406;18.784;2023-03-01T03:01:52;24.50;;;23.27;;
78338;SDS011;67614;47.406;18.784;2023-03-01T03:02:24;25.07;;;23.80;;
78338;SDS011;67614;47.406;18.784;2023-03-01T03:03:08;23.87;;;22.70;;
78338;SDS011;67614;47.406;18.784;2023-03-01T03:03:41;24.57;;;23.00;;
78338;SDS011;67614;47.406;18.784;2023-03-01T03:04:16;24.47;;;22.87;;
78338;SDS011;67614;47.406;18.784;2023-03-01T03:04:48;24.30;;;22.90;;
78338;SDS011;67614;47.406;18.784;2023-03-01T03:05:22;23.43;;;22.20;;
78338;SDS011;67614;47.406;18.784;2023-03-01T03:05:54;23.90;;;22.77;;
78338;SDS011;67614;47.406;18.784;2023-03-01T03:06:24;24.57;;;23.43;;
78338;SDS011;67614;47.406;18.784;2023-03-01T03:06:55;24.77;;;23.83;;
78338;SDS011;67614;47.406;18.784;2023-03-01T03:07:25;25.03;;;24.07;;
78338;SDS011;67614;47.406;18.784;2023-03-01T03:07:56;24.40;;;23.57;;
78338;SDS011;67614;47.406;18.784;2023-03-01T03:08:28;23.97;;;22.97;;
78338;SDS011;67614;47.406;18.784;2023-03-01T03:08:59;24.87;;;23.83;;
78338;SDS011;67614;47.406;18.784;2023-03-01T03:09:29;24.33;;;23.17;;
78338;SDS011;67614;47.406;18.784;2023-03-01T03:10:00;24.03;;;22.60;;
78338;SDS011;67614;47.406;18.784;2023-03-01T03:10:32;25.07;;;23.37;;
78338;SDS011;67614;47.406;18.784;2023-03-01T03:11:06;24.33;;;23.07;;
78338;SDS011;67614;47.406;18.784;2023-03-01T03:11:36;23.43;;;22.33;;
78338;SDS011;67614;47.406;18.784;2023-03-01T03:12:09;23.43;;;22.37;;
78338;SDS011;67614;47.406;18.784;2023-03-01T03:12:40;24.30;;;23.17;;
78338;SDS011;67614;47.406;18.784;2023-03-01T03:13:12;24.23;;;23.07;;
78338;SDS011;67614;47.406;18.784;2023-03-01T03:13:43;24.87;;;23.67;;
78338;SDS011;67614;47.406;18.784;2023-03-01T03:14:18;24.00;;;22.77;;
78338;SDS011;67614;47.406;18.784;2023-03-01T03:14:49;23.80;;;22.60;;
78338;SDS011;67614;47.406;18.784;2023-03-01T03:15:20;24.47;;;23.47;;
78338;SDS011;67614;47.406;18.784;2023-03-01T03:15:52;24.77;;;23.70;;
78338;SDS011;67614;47.406;18.784;2023-03-01T03:16:22;24.03;;;23.03;;
78338;SDS011;67614;47.406;18.784;2023-03-01T03:16:52;25.03;;;23.77;;
78338;SDS011;67614;47.406;18.784;2023-03-01T03:17:23;26.00;;;24.23;;
78338;SDS011;67614;47.406;18.784;2023-03-01T03:17:54;26.43;;;24.63;;
78338;SDS011;67614;47.406;18.784;2023-03-01T03:18:26;25.57;;;24.20;;
78338;SDS011;67614;47.406;18.784;2023-03-01T03:18:56;25.97;;;24.67;;
78338;SDS011;67614;47.406;18.784;2023-03-01T03:19:34;26.33;;;24.73;;
78338;SDS011;67614;47.406;18.784;2023-03-01T03:20:05;26.43;;;24.93;;
78338;SDS011;67614;47.406;18.784;2023-03-01T03:20:42;25.23;;;24.03;;
78338;SDS011;67614;47.406;18.784;2023-03-01T03:21:13;24.90;;;23.53;;
78338;SDS011;67614;47.406;18.784;2023-03-01T03:21:45;25.27;;;24.07;;
78338;SDS011;67614;47.406;18.784;2023-03-01T03:22:15;24.20;;;23.23;;
78338;SDS011;67614;47.406;18.784;2023-03-01T03:22:47;24.93;;;23.93;;
78338;SDS011;67614;47.406;18.784;2023-03-01T03:23:19;24.37;;;23.40;;
78338;SDS011;67614;47.406;18.784;2023-03-01T03:23:50;24.87;;;23.83;;
78338;SDS011;67614;47.406;18.784;2023-03-01T03:24:21;25.83;;;24.53;;
78338;SDS011;67614;47.406;18.784;2023-03-01T03:24:51;25.77;;;24.30;;
78338;SDS011;67614;47.406;18.784;2023-03-01T03:25:22;26.47;;;25.27;;
78338;SDS011;67614;47.406;18.784;2023-03-01T03:25:53;25.10;;;23.97;;
78338;SDS011;67614;47.406;18.784;2023-03-01T03:26:23;24.87;;;23.80;;
78338;SDS011;67614;47.406;18.784;2023-03-01T03:26:54;23.30;;;22.43;;
78338;SDS011;67614;47.406;18.784;2023-03-01T03:27:24;24.73;;;23.70;;
78338;SDS011;67614;47.406;18.784;2023-03-01T03:27:55;26.23;;;24.70;;
78338;SDS011;67614;47.406;18.784;2023-03-01T03:28:28;26.53;;;25.03;;
78338;SDS011;67614;47.406;18.784;2023-03-01T03:29:19;26.10;;;24.57;;
78338;SDS011;67614;47.406;18.784;2023-03-01T03:29:50;26.13;;;24.60;;
78338;SDS011;67614;47.406;18.784;2023-03-01T03:30:20;25.63;;;24.33;;
78338;SDS011;67614;47.406;18.784;2023-03-01T03:30:51;24.63;;;23.53;;
78338;SDS011;67614;47.406;18.784;2023-03-01T03:31:22;24.37;;;23.10;;
78338;SDS011;67614;47.406;18.784;2023-03-01T03:31:53;25.17;;;23.73;;
78338;SDS011;67614;47.406;18.784;2023-03-01T03:32:23;24.33;;;23.03;;
78338;SDS011;67614;47.406;18.784;2023-03-01T03:32:54;25.57;;;24.27;;
78338;SDS011;67614;47.406;18.784;2023-03-01T03:33:25;24.83;;;23.73;;
78338;SDS011;67614;47.406;18.784;2023-03-01T03:33:56;25.13;;;24.00;;
78338;SDS011;67614;47.406;18.784;2023-03-01T03:34:26;25.00;;;23.67;;
78338;SDS011;67614;47.406;18.784;2023-03-01T03:34:57;24.63;;;23.53;;
78338;SDS011;67614;47.406;18.784;2023-03-01T03:35:29;25.80;;;24.43;;
78338;SDS011;67614;47.406;18.784;2023-03-01T03:36:02;25.83;;;24.37;;
78338;SDS011;67614;47.406;18.784;2023-03-01T03:36:32;24.60;;;23.20;;
78338;SDS011;67614;47.406;18.784;2023-03-01T03:37:03;24.87;;;23.57;;
78338;SDS011;67614;47.406;18.784;2023-03-01T03:37:33;24.87;;;23.57;;
78338;SDS011;67614;47.406;18.784;2023-03-01T03:38:22;24.23;;;22.77;;
78338;SDS011;67614;47.406;18.784;2023-03-01T03:38:53;25.70;;;24.07;;
78338;SDS011;67614;47.406;18.784;2023-03-01T03:39:23;25.27;;;23.87;;
78338;SDS011;67614;47.406;18.784;2023-03-01T03:39:54;24.90;;;23.90;;
78338;SDS011;67614;47.406;18.784;2023-03-01T03:40:25;25.17;;;24.10;;
78338;SDS011;67614;47.406;18.784;2023-03-01T03:41:03;23.77;;;22.63;;
78338;SDS011;67614;47.406;18.784;2023-03-01T03:41:35;25.20;;;23.87;;
78338;SDS011;67614;47.406;18.784;2023-03-01T03:42:06;26.17;;;24.50;;
78338;SDS011;67614;47.406;18.784;2023-03-01T03:42:36;25.10;;;23.63;;
78338;SDS011;67614;47.406;18.784;2023-03-01T03:43:08;24.63;;;23.23;;
78338;SDS011;67614;47.406;18.784;2023-03-01T03:43:40;24.53;;;22.97;;
78338;SDS011;67614;47.406;18.784;2023-03-01T03:44:12;25.27;;;23.77;;
78338;SDS011;67614;47.406;18.784;2023-03-01T05:05:30;22.47;;;21.33;;
78338;SDS011;67614;47.406;18.784;2023-03-01T05:06:05;20.90;;;19.93;;
78338;SDS011;67614;47.406;18.784;2023-03-01T05:06:35;21.37;;;20.40;;
78338;SDS011;67614;47.406;18.784;2023-03-01T05:07:06;21.50;;;20.27;;
78338;SDS011;67614;47.406;18.784;2023-03-01T05:07:36;22.93;;;21.40;;
78338;SDS011;67614;47.406;18.784;2023-03-01T05:08:07;22.20;;;20.73;;
78338;SDS011;67614;47.406;18.784;2023-03-01T05:08:38;23.20;;;21.77;;
78338;SDS011;67614;47.406;18.784;2023-03-01T05:09:09;23.17;;;21.87;;
78338;SDS011;67614;47.406;18.784;2023-03-01T05:09:41;22.80;;;21.70;;
78338;SDS011;67614;47.406;18.784;2023-03-01T05:10:11;21.83;;;20.87;;
78338;SDS011;67614;47.406;18.784;2023-03-01T05:10:42;22.17;;;21.10;;
78338;SDS011;67614;47.406;18.784;2023-03-01T05:11:17;23.07;;;22.10;;
78338;SDS011;67614;47.406;18.784;2023-03-01T05:11:47;22.50;;;21.37;;
78338;SDS011;67614;47.406;18.784;2023-03-01T05:12:18;22.03;;;20.77;;
78338;SDS011;67614;47.406;18.784;2023-03-01T05:12:48;21.83;;;20.70;;
78338;SDS011;67614;47.406;18.784;2023-03-01T05:13:19;21.60;;;20.70;;
78338;SDS011;67614;47.406;18.784;2023-03-01T05:13:51;21.50;;;20.73;;
78338;SDS011;67614;47.406;18.784;2023-03-01T05:14:24;21.97;;;21.20;;
78338;SDS011;67614;47.406;18.784;2023-03-01T05:14:55;21.83;;;20.90;;
78338;SDS011;67614;47.406;18.784;2023-03-01T05:15:26;21.90;;;21.00;;
78338;SDS011;67614;47.406;18.784;2023-03-01T05:15:58;22.13;;;20.97;;
78338;SDS011;67614;47.406;18.784;2023-03-01T05:16:31;22.67;;;21.30;;
78338;SDS011;67614;47.406;18.784;2023-03-01T05:17:01;23.30;;;21.93;;
78338;SDS011;67614;47.406;18.784;2023-03-01T05:17:33;21.43;;;20.57;;
78338;SDS011;67614;47.406;18.784;2023-03-01T05:18:04;21.37;;;20.50;;
78338;SDS011;67614;47.406;18.784;2023-03-01T05:18:41;21.63;;;20.60;;
78338;SDS011;67614;47.406;18.784;2023-03-01T05:19:11;22.03;;;20.93;;
78338;SDS011;67614;47.406;18.784;2023-03-01T05:19:45;22.63;;;21.27;;
78338;SDS011;67614;47.406;18.784;2023-03-01T05:20:16;23.60;;;22.20;;
78338;SDS011;67614;47.406;18.784;2023-03-01T05:20:47;23.80;;;22.40;;
78338;SDS011;67614;47.406;18.784;2023-03-01T05:21:17;23.07;;;21.70;;
78338;SDS011;67614;47.406;18.784;2023-03-01T05:21:48;22.27;;;21.10;;
78338;SDS011;67614;47.406;18.784;2023-03-01T05:22:34;23.77;;;22.43;;
78338;SDS011;67614;47.406;18.784;2023-03-01T05:23:05;23.40;;;22.17;;
78338;SDS011;67614;47.406;18.784;2023-03-01T05:23:35;23.77;;;22.30;;
78338;SDS011;67614;47.406;18.784;2023-03-01T05:24:06;23.87;;;22.67;;
78338;SDS011;67614;47.406;18.784;2023-03-01T05:24:41;23.50;;;22.30;;
78338;SDS011;67614;47.406;18.784;2023-03-01T05:25:12;23.20;;;21.80;;
78338;SDS011;67614;47.406;18.784;2023-03-01T05:25:44;22.27;;;21.07;;
78338;SDS011;67614;47.406;18.784;2023-03-01T05:26:15;22.83;;;21.50;;
78338;SDS011;67614;47.406;18.784;2023-03-01T05:26:47;22.47;;;21.40;;
78338;SDS011;67614;47.406;18.784;2023-03-01T05:27:18;22.53;;;21.40;;
78338;SDS011;67614;47.406;18.784;2023-03-01T05:27:52;23.17;;;21.93;;
78338;SDS011;67614;47.406;18.784;2023-03-01T05:28:22;23.70;;;22.37;;
78338;SDS011;67614;47.406;18.784;2023-03-01T05:28:53;23.93;;;22.57;;
78338;SDS011;67614;47.406;18.784;2023-03-01T05:29:28;23.97;;;22.40;;
78338;SDS011;67614;47.406;18.784;2023-03-01T05:30:01;23.27;;;21.90;;
78338;SDS011;67614;47.406;18.784;2023-03-01T05:30:43;22.37;;;21.20;;
78338;SDS011;67614;47.406;18.784;2023-03-01T05:31:13;21.97;;;20.80;;
78338;SDS011;67614;47.406;18.784;2023-03-01T05:31:44;22.73;;;21.63;;
78338;SDS011;67614;47.406;18.784;2023-03-01T05:32:14;22.43;;;21.47;;
78338;SDS011;67614;47.406;18.784;2023-03-01T05:32:49;22.27;;;21.30;;
78338;SDS011;67614;47.406;18.784;2023-03-01T05:33:26;22.70;;;21.60;;
78338;SDS011;67614;47.406;18.784;2023-03-01T05:33:57;24.40;;;22.57;;
78338;SDS011;67614;47.406;18.784;2023-03-01T05:34:28;23.30;;;21.50;;
78338;SDS011;67614;47.406;18.784;2023-03-01T05:35:01;22.37;;;20.80;;
78338;SDS011;67614;47.406;18.784;2023-03-01T05:35:32;21.90;;;20.43;;
78338;SDS011;67614;47.406;18.784;2023-03-01T05:36:03;22.23;;;20.70;;
78338;SDS011;67614;47.406;18.784;2023-03-01T05:36:34;22.90;;;21.40;;
78338;SDS011;67614;47.406;18.784;2023-03-01T05:37:05;22.63;;;21.13;;
78338;SDS011;67614;47.406;18.784;2023-03-01T05:37:37;22.30;;;21.23;;
78338;SDS011;67614;47.406;18.784;2023-03-01T05:38:08;22.13;;;21.23;;
78338;SDS011;67614;47.406;18.784;2023-03-01T05:38:43;22.63;;;21.67;;
78338;SDS011;67614;47.406;18.784;2023-03-01T05:39:14;21.80;;;20.83;;
78338;SDS011;67614;47.406;18.784;2023-03-01T05:39:44;22.03;;;21.03;;
78338;SDS011;67614;47.406;18.784;2023-03-01T05:40:16;22.13;;;21.23;;
78338;SDS011;67614;47.406;18.784;2023-03-01T05:40:54;22.07;;;20.97;;
78338;SDS011;67614;47.406;18.784;2023-03-01T05:41:24;23.63;;;22.33;;
78338;SDS011;67614;47.406;18.784;2023-03-01T05:41:56;23.60;;;22.40;;
78338;SDS011;67614;47.406;18.784;2023-03-01T05:42:27;22.50;;;21.50;;
78338;SDS011;67614;47.406;18.784;2023-03-01T05:42:58;22.77;;;21.73;;
78338;SDS011;67614;47.406;18.784;2023-03-01T05:43:31;21.43;;;20.50;;
78338;SDS011;67614;47.406;18.784;2023-03-01T05:44:05;22.73;;;21.77;;
78338;SDS011;67614;47.406;18.784;2023-03-01T05:55:58;22.63;;;21.53;;
78338;SDS011;67614;47.406;18.784;2023-03-01T05:56:28;22.83;;;21.73;;
78338;SDS011;67614;47.406;18.784;2023-03-01T05:56:59;22.77;;;21.70;;
78338;SDS011;67614;47.406;18.784;2023-03-01T05:57:29;22.80;;;21.60;;
78338;SDS011;67614;47.406;18.784;2023-03-01T05:58:01;21.67;;;20.60;;
78338;SDS011;67614;47.406;18.784;2023-03-01T05:58:33;22.37;;;21.27;;
78338;SDS011;67614;47.406;18.784;2023-03-01T05:59:04;23.47;;;22.20;;
78338;SDS011;67614;47.406;18.784;2023-03-01T05:59:37;23.03;;;21.67;;
78338;SDS011;67614;47.406;18.784;2023-03-01T06:00:09;23.60;;;22.20;;
78338;SDS011;67614;47.406;18.784;2023-03-01T06:00:41;22.40;;;21.03;;
78338;SDS011;67614;47.406;18.784;2023-03-01T06:01:12;22.70;;;21.37;;
78338;SDS011;67614;47.406;18.784;2023-03-01T06:01:43;22.63;;;21.37;;
78338;SDS011;67614;47.406;18.784;2023-03-01T06:02:14;22.53;;;21.40;;
78338;SDS011;67614;47.406;18.784;2023-03-01T06:02:44;22.57;;;21.27;;
78338;SDS011;67614;47.406;18.784;2023-03-01T06:03:16;21.40;;;20.27;;
78338;SDS011;67614;47.406;18.784;2023-03-01T06:03:47;22.73;;;21.50;;
78338;SDS011;67614;47.406;18.784;2023-03-01T06:04:17;22.23;;;21.07;;
78338;SDS011;67614;47.406;18.784;2023-03-01T06:04:48;22.20;;;20.93;;
78338;SDS011;67614;47.406;18.784;2023-03-01T06:05:18;24.07;;;22.60;;
78338;SDS011;67614;47.406;18.784;2023-03-01T06:05:49;23.33;;;21.87;;
78338;SDS011;67614;47.406;18.784;2023-03-01T06:06:19;22.40;;;21.20;;
78338;SDS011;67614;47.406;18.784;2023-03-01T06:06:50;22.37;;;21.17;;
78338;SDS011;67614;47.406;18.784;2023-03-01T06:07:20;22.13;;;20.87;;
78338;SDS011;67614;47.406;18.784;2023-03-01T06:07:51;22.23;;;20.83;;
78338;SDS011;67614;47.406;18.784;2023-03-01T06:08:22;22.43;;;21.20;;
78338;SDS011;67614;47.406;18.784;2023-03-01T06:08:54;22.17;;;21.17;;
78338;SDS011;67614;47.406;18.784;2023-03-01T06:09:26;22.43;;;21.30;;
78338;SDS011;67614;47.406;18.784;2023-03-01T06:09:59;23.53;;;22.13;;
78338;SDS011;67614;47.406;18.784;2023-03-01T06:10:29;22.87;;;21.50;;
78338;SDS011;67614;47.406;18.784;2023-03-01T06:11:00;22.20;;;21.00;;
78338;SDS011;67614;47.406;18.784;2023-03-01T06:11:30;22.40;;;21.13;;
78338;SDS011;67614;47.406;18.784;2023-03-01T06:12:01;20.93;;;19.87;;
78338;SDS011;67614;47.406;18.784;2023-03-01T06:12:32;21.03;;;20.13;;
78338;SDS011;67614;47.406;18.784;2023-03-01T06:13:04;22.13;;;21.17;;
78338;SDS011;67614;47.406;18.784;2023-03-01T06:13:34;21.87;;;20.87;;
78338;SDS011;67614;47.406;18.784;2023-03-01T06:14:05;21.40;;;20.33;;
78338;SDS011;67614;47.406;18.784;2023-03-01T06:14:37;22.47;;;21.30;;
78338;SDS011;67614;47.406;18.784;2023-03-01T06:15:08;22.27;;;21.10;;
78338;SDS011;67614;47.406;18.784;2023-03-01T06:15:40;21.57;;;20.57;;
78338;SDS011;67614;47.406;18.784;2023-03-01T06:16:10;20.53;;;19.67;;
78338;SDS011;67614;47.406;18.784;2023-03-01T06:16:41;19.57;;;18.77;;
78338;SDS011;67614;47.406;18.784;2023-03-01T06:17:12;20.90;;;19.90;;
78338;SDS011;67614;47.406;18.784;2023-03-01T06:17:43;22.07;;;21.07;;
78338;SDS011;67614;47.406;18.784;2023-03-01T06:18:15;22.03;;;21.03;;
78338;SDS011;67614;47.406;18.784;2023-03-01T06:18:46;21.83;;;20.80;;
78338;SDS011;67614;47.406;18.784;2023-03-01T06:19:16;22.57;;;21.37;;
78338;SDS011;67614;47.406;18.784;2023-03-01T06:19:47;23.60;;;22.33;;
78338;SDS011;67614;47.406;18.784;2023-03-01T06:20:21;22.47;;;21.40;;
78338;SDS011;67614;47.406;18.784;2023-03-01T06:20:53;22.10;;;21.07;;
78338;SDS011;67614;47.406;18.784;2023-03-01T06:21:24;22.07;;;21.07;;
78338;SDS011;67614;47.406;18.784;2023-03-01T06:21:54;22.67;;;21.63;;
78338;SDS011;67614;47.406;18.784;2023-03-01T06:22:25;22.73;;;21.60;;
78338;SDS011;67614;47.406;18.784;2023-03-01T06:22:55;22.20;;;20.90;;
78338;SDS011;67614;47.406;18.784;2023-03-01T06:23:26;21.37;;;20.30;;
78338;SDS011;67614;47.406;18.784;2023-03-01T06:23:57;22.50;;;21.23;;
78338;SDS011;67614;47.406;18.784;2023-03-01T06:24:27;23.43;;;21.97;;
78338;SDS011;67614;47.406;18.784;2023-03-01T06:24:58;21.60;;;20.30;;
78338;SDS011;67614;47.406;18.784;2023-03-01T06:25:29;22.20;;;20.70;;
78338;SDS011;67614;47.406;18.784;2023-03-01T06:25:59;22.30;;;20.93;;
78338;SDS011;67614;47.406;18.784;2023-03-01T06:26:30;21.93;;;20.57;;
78338;SDS011;67614;47.406;18.784;2023-03-01T06:27:01;21.97;;;20.67;;
78338;SDS011;67614;47.406;18.784;2023-03-01T06:27:31;21.00;;;19.90;;
78338;SDS011;67614;47.406;18.784;2023-03-01T06:28:02;21.57;;;20.33;;
78338;SDS011;67614;47.406;18.784;2023-03-01T06:28:32;22.03;;;20.67;;
78338;SDS011;67614;47.406;18.784;2023-03-01T06:29:03;21.57;;;20.30;;
78338;SDS011;67614;47.406;18.784;2023-03-01T06:29:33;21.57;;;20.33;;
78338;SDS011;67614;47.406;18.784;2023-03-01T06:30:04;21.50;;;20.20;;
78338;SDS011;67614;47.406;18.784;2023-03-01T06:30:35;21.63;;;20.20;;
78338;SDS011;67614;47.406;18.784;2023-03-01T06:31:05;20.80;;;19.63;;
78338;SDS011;67614;47.406;18.784;2023-03-01T06:31:38;20.57;;;19.40;;
78338;SDS011;67614;47.406;18.784;2023-03-01T06:32:09;20.63;;;19.53;;
78338;SDS011;67614;47.406;18.784;2023-03-01T06:32:39;21.27;;;20.33;;
78338;SDS011;67614;47.406;18.784;2023-03-01T06:33:11;21.90;;;21.00;;
78338;SDS011;67614;47.406;18.784;2023-03-01T06:33:42;22.07;;;21.17;;
78338;SDS011;67614;47.406;18.784;2023-03-01T06:34:14;21.70;;;20.73;;
78338;SDS011;67614;47.406;18.784;2023-03-01T06:34:45;21.53;;;20.53;;
78338;SDS011;67614;47.406;18.784;2023-03-01T06:35:16;21.00;;;20.00;;
78338;SDS011;67614;47.406;18.784;2023-03-01T06:35:47;22.13;;;20.90;;
78338;SDS011;67614;47.406;18.784;2023-03-01T06:36:18;21.93;;;20.60;;
78338;SDS011;67614;47.406;18.784;2023-03-01T06:36:51;21.53;;;20.13;;
78338;SDS011;67614;47.406;18.784;2023-03-01T06:37:25;21.10;;;19.83;;
78338;SDS011;67614;47.406;18.784;2023-03-01T06:37:56;22.40;;;21.00;;
78338;SDS011;67614;47.406;18.784;2023-03-01T06:38:27;21.37;;;20.13;;
78338;SDS011;67614;47.406;18.784;2023-03-01T06:38:58;20.93;;;19.87;;
78338;SDS011;67614;47.406;18.784;2023-03-01T06:39:28;21.40;;;20.17;;
78338;SDS011;67614;47.406;18.784;2023-03-01T06:39:59;22.00;;;20.37;;
78338;SDS011;67614;47.406;18.784;2023-03-01T06:40:29;21.00;;;19.67;;
78338;SDS011;67614;47.406;18.784;2023-03-01T06:41:01;21.17;;;19.93;;
78338;SDS011;67614;47.406;18.784;2023-03-01T06:41:32;21.13;;;20.07;;
78338;SDS011;67614;47.406;18.784;2023-03-01T06:42:03;21.53;;;20.33;;
78338;SDS011;67614;47.406;18.784;2023-03-01T06:42:34;20.63;;;19.60;;
78338;SDS011;67614;47.406;18.784;2023-03-01T06:43:05;20.60;;;19.40;;
78338;SDS011;67614;47.406;18.784;2023-03-01T06:43:37;21.00;;;19.73;;
78338;SDS011;67614;47.406;18.784;2023-03-01T06:44:08;22.13;;;20.90;;
78338;SDS011;67614;47.406;18.784;2023-03-01T06:44:38;21.03;;;20.07;;
78338;SDS011;67614;47.406;18.784;2023-03-01T06:45:09;21.50;;;20.43;;
78338;SDS011;67614;47.406;18.784;2023-03-01T06:45:40;21.63;;;20.57;;
78338;SDS011;67614;47.406;18.784;2023-03-01T06:46:11;20.97;;;19.90;;
78338;SDS011;67614;47.406;18.784;2023-03-01T06:46:42;22.03;;;20.93;;
78338;SDS011;67614;47.406;18.784;2023-03-01T06:47:12;20.47;;;19.53;;
78338;SDS011;67614;47.406;18.784;2023-03-01T06:47:43;21.80;;;20.57;;
78338;SDS011;67614;47.406;18.784;2023-03-01T06:48:13;21.80;;;20.63;;
78338;SDS011;67614;47.406;18.784;2023-03-01T06:48:44;20.77;;;19.93;;
78338;SDS011;67614;47.406;18.784;2023-03-01T06:49:14;20.87;;;20.03;;
78338;SDS011;67614;47.406;18.784;2023-03-01T06:49:46;19.93;;;19.23;;
78338;SDS011;67614;47.406;18.784;2023-03-01T06:50:16;20.20;;;19.27;;
78338;SDS011;67614;47.406;18.784;2023-03-01T06:50:47;20.70;;;19.63;;
78338;SDS011;67614;47.406;18.784;2023-03-01T06:51:18;21.70;;;20.57;;
78338;SDS011;67614;47.406;18.784;2023-03-01T06:51:48;21.47;;;20.33;;
78338;SDS011;67614;47.406;18.784;2023-03-01T06:52:19;21.70;;;20.40;;
78338;SDS011;67614;47.406;18.784;2023-03-01T06:52:54;21.33;;;20.20;;
78338;SDS011;67614;47.406;18.784;2023-03-01T06:53:26;21.60;;;20.57;;
78338;SDS011;67614;47.406;18.784;2023-03-01T06:53:59;21.77;;;20.70;;
78338;SDS011;67614;47.406;18.784;2023-03-01T06:54:30;21.30;;;20.13;;
78338;SDS011;67614;47.406;18.784;2023-03-01T06:55:01;21.63;;;20.53;;
78338;SDS011;67614;47.406;18.784;2023-03-01T06:55:31;20.23;;;19.10;;
78338;SDS011;67614;47.406;18.784;2023-03-01T06:56:02;21.00;;;19.63;;
78338;SDS011;67614;47.406;18.784;2023-03-01T06:56:33;21.90;;;20.33;;
78338;SDS011;67614;47.406;18.784;2023-03-01T06:57:03;22.33;;;20.83;;
78338;SDS011;67614;47.406;18.784;2023-03-01T06:57:34;20.07;;;18.93;;
78338;SDS011;67614;47.406;18.784;2023-03-01T06:58:04;19.47;;;18.57;;
78338;SDS011;67614;47.406;18.784;2023-03-01T06:58:35;20.47;;;19.57;;
78338;SDS011;67614;47.406;18.784;2023-03-01T06:59:05;20.73;;;19.70;;
78338;SDS011;67614;47.406;18.784;2023-03-01T06:59:36;22.43;;;21.10;;
78338;SDS011;67614;47.406;18.784;2023-03-01T07:00:06;21.70;;;20.47;;
78338;SDS011;67614;47.406;18.784;2023-03-01T07:00:38;21.17;;;20.23;;
78338;SDS011;67614;47.406;18.784;2023-03-01T07:01:10;20.87;;;20.00;;
78338;SDS011;67614;47.406;18.784;2023-03-01T07:01:41;20.27;;;19.37;;
78338;SDS011;67614;47.406;18.784;2023-03-01T07:02:12;20.73;;;19.77;;
78338;SDS011;67614;47.406;18.784;2023-03-01T07:02:43;20.77;;;19.83;;
78338;SDS011;67614;47.406;18.784;2023-03-01T07:03:14;20.47;;;19.37;;
78338;SDS011;67614;47.406;18.784;2023-03-01T07:03:44;20.00;;;18.83;;
78338;SDS011;67614;47.406;18.784;2023-03-01T07:04:14;21.07;;;19.83;;
78338;SDS011;67614;47.406;18.784;2023-03-01T07:04:45;21.03;;;20.00;;
78338;SDS011;67614;47.406;18.784;2023-03-01T07:05:16;20.37;;;19.57;;
78338;SDS011;67614;47.406;18.784;2023-03-01T07:05:49;19.97;;;19.13;;
78338;SDS011;67614;47.406;18.784;2023-03-01T07:06:22;20.27;;;19.13;;
78338;SDS011;67614;47.406;18.784;2023-03-01T07:06:53;21.17;;;20.07;;
78338;SDS011;67614;47.406;18.784;2023-03-01T07:07:25;20.07;;;19.27;;
78338;SDS011;67614;47.406;18.784;2023-03-01T07:07:55;19.57;;;18.57;;
78338;SDS011;67614;47.406;18.784;2023-03-01T07:08:26;20.23;;;19.13;;
78338;SDS011;67614;47.406;18.784;2023-03-01T07:08:56;20.43;;;19.43;;
78338;SDS011;67614;47.406;18.784;2023-03-01T07:09:27;19.90;;;18.93;;
78338;SDS011;67614;47.406;18.784;2023-03-01T07:09:58;19.20;;;18.40;;
78338;SDS011;67614;47.406;18.784;2023-03-01T07:10:28;17.63;;;16.90;;
78338;SDS011;67614;47.406;18.784;2023-03-01T07:10:58;19.23;;;18.30;;
78338;SDS011;67614;47.406;18.784;2023-03-01T07:11:29;19.73;;;18.63;;
78338;SDS011;67614;47.406;18.784;2023-03-01T07:11:59;20.50;;;19.33;;
78338;SDS011;67614;47.406;18.784;2023-03-01T07:12:30;19.93;;;18.73;;
78338;SDS011;67614;47.406;18.784;2023-03-01T07:13:00;20.27;;;18.87;;
78338;SDS011;67614;47.406;18.784;2023-03-01T07:13:31;20.10;;;18.77;;
78338;SDS011;67614;47.406;18.784;2023-03-01T07:14:02;18.83;;;17.73;;
78338;SDS011;67614;47.406;18.784;2023-03-01T07:14:33;18.97;;;17.93;;
78338;SDS011;67614;47.406;18.784;2023-03-01T07:15:04;18.97;;;18.00;;
78338;SDS011;67614;47.406;18.784;2023-03-01T07:15:35;18.87;;;18.00;;
78338;SDS011;67614;47.406;18.784;2023-03-01T07:16:06;19.17;;;18.37;;
78338;SDS011;67614;47.406;18.784;2023-03-01T07:16:36;20.37;;;19.63;;
78338;SDS011;67614;47.406;18.784;2023-03-01T07:17:07;19.47;;;18.80;;
78338;SDS011;67614;47.406;18.784;2023-03-01T07:17:37;18.97;;;18.17;;
78338;SDS011;67614;47.406;18.784;2023-03-01T07:18:08;19.30;;;18.30;;
78338;SDS011;67614;47.406;18.784;2023-03-01T07:18:38;18.97;;;17.90;;
78338;SDS011;67614;47.406;18.784;2023-03-01T07:19:09;19.00;;;18.07;;
78338;SDS011;67614;47.406;18.784;2023-03-01T07:19:39;19.90;;;18.83;;
78338;SDS011;67614;47.406;18.784;2023-03-01T07:20:10;19.93;;;18.80;;
78338;SDS011;67614;47.406;18.784;2023-03-01T07:20:41;20.07;;;18.80;;
78338;SDS011;67614;47.406;18.784;2023-03-01T07:21:12;20.37;;;19.07;;
78338;SDS011;67614;47.406;18.784;2023-03-01T07:21:43;20.87;;;19.43;;